Time;durP1;ratioP1;P1;durP2;ratioP2;P2;SDS_P1;SDS_P2;PMS_P1;PMS_P2;Temp;Humidity;BMP_temperature;BMP_pressure;BME280_temperature;BME280_humidity;BME280_pressure;Samples;Min_cycle;Max_cycle;Signal;HPM_P1;HPM_P2
2022/05/09 00:02:19;;;;;;;68.87;48.73;;;;;;;;;;4980342;28;20202;-77
2022/05/09 00:04:45;;;;;;;69.47;49.60;;;;;;;;;;4976621;28;20182;-77
2022/05/09 00:07:11;;;;;;;64.13;43.57;;;;;;;;;;4967482;28;20173;-77
2022/05/09 00:09:37;;;;;;;60.93;44.20;;;;;;;;;;4985468;28;20437;-77
2022/05/09 00:12:04;;;;;;;83.13;53.60;;;;;;;;;;4981447;28;20209;-77
2022/05/09 00:14:30;;;;;;;88.83;57.50;;;;;;;;;;4983732;28;21017;-77
2022/05/09 00:16:56;;;;;;;70.07;50.70;;;;;;;;;;4984789;28;20201;-77
2022/05/09 00:19:23;;;;;;;85.40;55.83;;;;;;;;;;4984857;28;20989;-77
2022/05/09 00:21:50;;;;;;;75.43;53.47;;;;;;;;;;4984924;28;20930;-78
2022/05/09 00:24:17;;;;;;;80.63;55.63;;;;;;;;;;4984593;28;20173;-77
2022/05/09 00:26:43;;;;;;;81.47;58.37;;;;;;;;;;4984509;28;20186;-77
2022/05/09 00:29:11;;;;;;;92.10;61.07;;;;;;;;;;4985937;28;20248;-77
2022/05/09 00:31:38;;;;;;;103.80;68.97;;;;;;;;;;4983179;28;20732;-77
2022/05/09 00:34:04;;;;;;;100.67;69.13;;;;;;;;;;4982740;28;20172;-77
2022/05/09 00:36:31;;;;;;;117.43;74.57;;;;;;;;;;4982286;28;20252;-77
2022/05/09 00:38:59;;;;;;;100.23;67.80;;;;;;;;;;4982363;28;20177;-77
2022/05/09 00:41:28;;;;;;;117.43;74.13;;;;;;;;;;4982244;28;20182;-77
2022/05/09 00:43:55;;;;;;;106.63;72.23;;;;;;;;;;4978806;28;20271;-77
2022/05/09 00:46:22;;;;;;;113.87;74.63;;;;;;;;;;4984939;28;20185;-77
2022/05/09 00:48:49;;;;;;;108.03;67.93;;;;;;;;;;4978944;28;20196;-77
2022/05/09 00:51:18;;;;;;;114.73;71.67;;;;;;;;;;4985095;28;21187;-77
2022/05/09 00:53:45;;;;;;;113.77;73.00;;;;;;;;;;4983241;28;20191;-77
2022/05/09 00:56:14;;;;;;;105.67;67.33;;;;;;;;;;4984041;28;20174;-77
2022/05/09 00:58:43;;;;;;;98.63;64.73;;;;;;;;;;4981775;28;20177;-77
2022/05/09 01:01:10;;;;;;;93.27;61.43;;;;;;;;;;4981640;28;20780;-77
2022/05/09 01:03:39;;;;;;;99.87;62.97;;;;;;;;;;4982189;28;20267;-77
2022/05/09 01:06:05;;;;;;;90.57;57.17;;;;;;;;;;4984009;28;20179;-77
2022/05/09 01:08:32;;;;;;;74.80;51.80;;;;;;;;;;4980075;28;20169;-77
2022/05/09 01:10:59;;;;;;;85.37;54.43;;;;;;;;;;4979955;28;20194;-77
2022/05/09 01:13:30;;;;;;;69.80;47.80;;;;;;;;;;4974312;28;20197;-77
2022/05/09 01:15:58;;;;;;;69.07;47.33;;;;;;;;;;4976683;28;20990;-77
2022/05/09 01:18:24;;;;;;;86.37;53.67;;;;;;;;;;4977904;28;20312;-77
2022/05/09 01:20:50;;;;;;;77.90;48.63;;;;;;;;;;4984514;28;20177;-77
2022/05/09 01:23:17;;;;;;;65.23;45.57;;;;;;;;;;4979514;28;20283;-77
2022/05/09 01:25:43;;;;;;;63.57;43.10;;;;;;;;;;4984067;28;20632;-77
2022/05/09 01:28:11;;;;;;;61.77;43.07;;;;;;;;;;4983809;28;20200;-77
2022/05/09 01:30:56;;;;;;;53.77;39.77;;;;;;;;;;4981430;28;20166;-77
2022/05/09 01:33:22;;;;;;;52.77;38.77;;;;;;;;;;4976683;28;20285;-77
2022/05/09 01:35:51;;;;;;;59.77;41.67;;;;;;;;;;4983851;28;20177;-77
2022/05/09 01:38:17;;;;;;;56.10;40.47;;;;;;;;;;4982828;28;20187;-77
2022/05/09 01:40:44;;;;;;;54.70;39.53;;;;;;;;;;4986681;28;20292;-77
2022/05/09 01:43:10;;;;;;;61.50;42.23;;;;;;;;;;4983493;28;21036;-77
2022/05/09 01:45:36;;;;;;;63.70;45.80;;;;;;;;;;4985316;28;20177;-77
2022/05/09 01:50:47;;;;;;;70.53;48.00;;;;;;;;;;4979892;28;20936;-77
2022/05/09 01:53:13;;;;;;;73.03;50.20;;;;;;;;;;4978615;28;20178;-77
2022/05/09 01:55:39;;;;;;;78.90;51.63;;;;;;;;;;4981802;28;20178;-77
2022/05/09 01:58:05;;;;;;;76.97;50.90;;;;;;;;;;4977272;28;20178;-77
2022/05/09 02:00:34;;;;;;;89.50;55.83;;;;;;;;;;4980902;28;20174;-77
2022/05/09 02:03:01;;;;;;;85.00;56.20;;;;;;;;;;4976808;28;20838;-77
2022/05/09 02:05:27;;;;;;;92.03;58.43;;;;;;;;;;4981895;28;20189;-77
2022/05/09 02:07:54;;;;;;;87.87;56.63;;;;;;;;;;4976257;28;20236;-77
2022/05/09 02:10:20;;;;;;;80.37;53.33;;;;;;;;;;4986865;28;20236;-77
2022/05/09 02:12:46;;;;;;;84.40;52.57;;;;;;;;;;4977104;28;20247;-77
2022/05/09 02:15:12;;;;;;;76.87;49.23;;;;;;;;;;4979540;28;20530;-77
2022/05/09 02:17:38;;;;;;;63.17;44.77;;;;;;;;;;4983031;28;20186;-77
2022/05/09 02:20:06;;;;;;;69.97;47.23;;;;;;;;;;4982841;28;20162;-77
2022/05/09 02:22:33;;;;;;;58.97;42.67;;;;;;;;;;4980811;28;20949;-77
2022/05/09 02:24:59;;;;;;;59.37;41.70;;;;;;;;;;4978056;28;20170;-77
2022/05/09 02:27:25;;;;;;;50.60;35.17;;;;;;;;;;4978199;28;20260;-77
2022/05/09 02:29:51;;;;;;;56.27;35.03;;;;;;;;;;4982245;28;20297;-77
2022/05/09 02:32:17;;;;;;;48.17;34.87;;;;;;;;;;4976707;28;20236;-77
2022/05/09 02:34:43;;;;;;;48.53;35.10;;;;;;;;;;4975126;28;20166;-77
2022/05/09 02:37:10;;;;;;;46.20;32.20;;;;;;;;;;4975788;28;20207;-77
2022/05/09 02:39:36;;;;;;;43.17;32.27;;;;;;;;;;4982476;28;20263;-77
2022/05/09 02:42:02;;;;;;;48.30;33.57;;;;;;;;;;4977400;28;21152;-77
2022/05/09 02:44:28;;;;;;;41.37;31.30;;;;;;;;;;4985146;28;20304;-77
2022/05/09 02:46:55;;;;;;;41.23;31.33;;;;;;;;;;4981600;28;20666;-77
2022/05/09 02:49:21;;;;;;;34.17;27.63;;;;;;;;;;4983553;28;20593;-77
2022/05/09 02:51:49;;;;;;;39.40;29.93;;;;;;;;;;4983526;28;20173;-77
2022/05/09 02:54:16;;;;;;;40.00;31.47;;;;;;;;;;4976913;28;20201;-77
2022/05/09 02:56:42;;;;;;;37.77;27.97;;;;;;;;;;4981283;28;20173;-78
2022/05/09 02:59:08;;;;;;;38.30;28.13;;;;;;;;;;4980841;28;20279;-77
2022/05/09 03:01:34;;;;;;;38.10;26.97;;;;;;;;;;4973226;28;21125;-77
2022/05/09 03:04:42;;;;;;;42.27;31.00;;;;;;;;;;4978739;28;21314;-77
2022/05/09 03:06:49;;;;;;;40.80;29.60;;;;;;;;;;4978867;28;20477;-77
2022/05/09 03:09:15;;;;;;;48.33;32.03;;;;;;;;;;4978707;28;20208;-77
2022/05/09 03:11:41;;;;;;;39.97;29.97;;;;;;;;;;4987649;28;20184;-77
2022/05/09 03:14:07;;;;;;;37.87;27.17;;;;;;;;;;4982008;28;20250;-77
2022/05/09 03:16:34;;;;;;;38.43;29.50;;;;;;;;;;4981555;28;20174;-77
2022/05/09 03:19:00;;;;;;;47.57;31.20;;;;;;;;;;4982690;28;20177;-77
2022/05/09 03:21:26;;;;;;;37.80;29.83;;;;;;;;;;4981569;28;20170;-77
2022/05/09 03:23:52;;;;;;;45.10;32.20;;;;;;;;;;4983861;28;20208;-77
2022/05/09 03:26:19;;;;;;;44.20;33.03;;;;;;;;;;4980165;28;20173;-77
2022/05/09 03:28:45;;;;;;;35.73;27.87;;;;;;;;;;4977598;28;20177;-77
2022/05/09 03:31:12;;;;;;;40.40;29.67;;;;;;;;;;4978370;28;20810;-77
2022/05/09 03:33:39;;;;;;;43.53;30.60;;;;;;;;;;4976382;28;20220;-77
2022/05/09 03:36:05;;;;;;;34.67;26.80;;;;;;;;;;4981319;28;20351;-76
2022/05/09 03:38:31;;;;;;;40.70;28.50;;;;;;;;;;4986576;28;20181;-76
2022/05/09 03:40:59;;;;;;;40.17;28.80;;;;;;;;;;4978049;28;21077;-76
2022/05/09 03:43:25;;;;;;;33.17;25.33;;;;;;;;;;4982997;28;20236;-76
2022/05/09 03:45:52;;;;;;;35.87;26.60;;;;;;;;;;4979739;28;20917;-76
2022/05/09 03:48:18;;;;;;;37.13;26.77;;;;;;;;;;4984266;28;21065;-76
2022/05/09 03:50:45;;;;;;;39.87;29.60;;;;;;;;;;4985002;28;22083;-76
2022/05/09 03:53:11;;;;;;;38.83;28.67;;;;;;;;;;4985134;28;20961;-76
2022/05/09 03:55:37;;;;;;;41.07;29.57;;;;;;;;;;4982230;28;20178;-76
2022/05/09 03:58:03;;;;;;;37.17;28.87;;;;;;;;;;4986227;28;20293;-76
2022/05/09 04:00:32;;;;;;;36.90;28.03;;;;;;;;;;4985808;28;20254;-76
2022/05/09 04:02:59;;;;;;;40.23;29.67;;;;;;;;;;4984284;28;20240;-76
2022/05/09 04:05:30;;;;;;;43.83;31.17;;;;;;;;;;4983654;28;20177;-76
2022/05/09 04:07:57;;;;;;;33.10;27.30;;;;;;;;;;4984188;28;20715;-76
2022/05/09 04:10:25;;;;;;;36.97;26.50;;;;;;;;;;4987161;28;20225;-76
2022/05/09 04:12:51;;;;;;;36.67;26.70;;;;;;;;;;4986410;28;20173;-76
2022/05/09 04:18:02;;;;;;;36.53;26.13;;;;;;;;;;4986273;28;20235;-76
2022/05/09 04:20:29;;;;;;;37.47;27.77;;;;;;;;;;4987783;28;20821;-76
2022/05/09 04:22:56;;;;;;;35.03;28.20;;;;;;;;;;4983456;28;20279;-77
2022/05/09 04:25:22;;;;;;;37.10;28.97;;;;;;;;;;4983376;28;20166;-79
2022/05/09 04:27:49;;;;;;;39.13;28.63;;;;;;;;;;4985549;28;20196;-77
2022/05/09 04:30:16;;;;;;;36.77;28.17;;;;;;;;;;4989129;28;20172;-76
2022/05/09 04:32:42;;;;;;;37.33;28.20;;;;;;;;;;4987817;28;21105;-76
2022/05/09 04:35:17;;;;;;;32.67;24.93;;;;;;;;;;4983476;28;20963;-77
2022/05/09 04:37:45;;;;;;;38.27;28.60;;;;;;;;;;4985702;28;20184;-76
2022/05/09 04:40:12;;;;;;;37.70;27.93;;;;;;;;;;4983391;28;23054;-76
2022/05/09 04:42:38;;;;;;;33.83;26.03;;;;;;;;;;4990641;28;20193;-76
2022/05/09 04:45:04;;;;;;;32.97;26.17;;;;;;;;;;4990318;28;20177;-77
2022/05/09 04:47:30;;;;;;;37.73;26.87;;;;;;;;;;4984775;28;20232;-76
2022/05/09 04:49:56;;;;;;;35.80;26.43;;;;;;;;;;4992852;28;21121;-76
2022/05/09 04:52:22;;;;;;;37.70;27.67;;;;;;;;;;4984253;28;20247;-76
2022/05/09 04:54:48;;;;;;;36.53;26.57;;;;;;;;;;4990799;28;20190;-76
2022/05/09 04:57:14;;;;;;;34.23;27.17;;;;;;;;;;4992572;28;20169;-76
2022/05/09 04:59:40;;;;;;;37.30;28.50;;;;;;;;;;4992243;28;20170;-76
2022/05/09 05:02:06;;;;;;;34.03;27.13;;;;;;;;;;4993183;28;20274;-76
2022/05/09 05:04:32;;;;;;;36.87;27.83;;;;;;;;;;4994137;28;20290;-77
2022/05/09 05:06:59;;;;;;;32.77;27.23;;;;;;;;;;4987203;28;20249;-76
2022/05/09 05:09:25;;;;;;;37.17;27.03;;;;;;;;;;5004512;28;20186;-76
2022/05/09 05:11:51;;;;;;;35.60;25.20;;;;;;;;;;5001131;28;20209;-77
2022/05/09 05:14:17;;;;;;;36.93;27.23;;;;;;;;;;5002342;28;20177;-76
2022/05/09 05:17:01;;;;;;;35.80;27.50;;;;;;;;;;5009780;28;20180;-76
2022/05/09 05:19:28;;;;;;;32.97;26.77;;;;;;;;;;5001217;28;20294;-76
2022/05/09 05:21:54;;;;;;;36.27;26.47;;;;;;;;;;5002142;28;20169;-76
2022/05/09 05:24:20;;;;;;;39.63;28.40;;;;;;;;;;4991497;28;20177;-76
2022/05/09 05:26:46;;;;;;;31.07;26.87;;;;;;;;;;4983020;28;21190;-78
2022/05/09 05:29:14;;;;;;;32.90;25.57;;;;;;;;;;4981951;28;20705;-77
2022/05/09 05:31:40;;;;;;;31.37;24.97;;;;;;;;;;4987531;28;21052;-76
2022/05/09 05:34:06;;;;;;;32.30;26.20;;;;;;;;;;4983069;28;20184;-76
2022/05/09 05:36:32;;;;;;;33.83;25.83;;;;;;;;;;4983693;28;21132;-77
2022/05/09 05:38:59;;;;;;;33.63;26.80;;;;;;;;;;4978099;28;20263;-76
2022/05/09 05:41:25;;;;;;;35.90;26.63;;;;;;;;;;4979280;28;20185;-76
2022/05/09 05:43:52;;;;;;;30.73;25.80;;;;;;;;;;4987449;28;21023;-76
2022/05/09 05:46:19;;;;;;;34.00;24.97;;;;;;;;;;4983255;28;20265;-77
2022/05/09 05:48:45;;;;;;;35.13;25.17;;;;;;;;;;4981017;28;20205;-77
2022/05/09 05:51:12;;;;;;;33.47;25.20;;;;;;;;;;4984083;28;20978;-76
2022/05/09 05:53:38;;;;;;;33.53;26.00;;;;;;;;;;4985990;28;21190;-77
2022/05/09 05:56:04;;;;;;;33.20;25.10;;;;;;;;;;4986824;28;20173;-77
2022/05/09 05:58:31;;;;;;;36.30;25.73;;;;;;;;;;4981777;28;20189;-78
2022/05/09 06:00:57;;;;;;;33.43;25.97;;;;;;;;;;4970871;28;20642;-77
2022/05/09 06:03:23;;;;;;;33.60;24.73;;;;;;;;;;4982585;28;20224;-77
2022/05/09 06:05:49;;;;;;;32.10;25.17;;;;;;;;;;4984255;28;20284;-78
2022/05/09 06:08:16;;;;;;;32.53;24.93;;;;;;;;;;4987472;28;20972;-79
2022/05/09 06:10:42;;;;;;;30.17;24.43;;;;;;;;;;4990564;28;20188;-78
2022/05/09 06:13:08;;;;;;;33.83;24.50;;;;;;;;;;4988615;28;20173;-78
2022/05/09 06:15:36;;;;;;;29.63;23.43;;;;;;;;;;4980927;28;20189;-79
2022/05/09 06:18:12;;;;;;;30.93;24.07;;;;;;;;;;4983453;28;20196;-79
2022/05/09 06:20:40;;;;;;;32.90;25.20;;;;;;;;;;4981640;28;20174;-79
2022/05/09 06:23:07;;;;;;;27.80;23.03;;;;;;;;;;4983592;28;20232;-79
2022/05/09 06:25:34;;;;;;;29.57;23.53;;;;;;;;;;4984127;28;20173;-79
2022/05/09 06:28:00;;;;;;;30.60;24.27;;;;;;;;;;4983692;28;21110;-79
2022/05/09 06:30:27;;;;;;;31.40;23.47;;;;;;;;;;4979355;28;20181;-80
2022/05/09 06:32:53;;;;;;;27.90;23.00;;;;;;;;;;4980547;28;20898;-80
2022/05/09 06:35:23;;;;;;;30.63;24.07;;;;;;;;;;4976894;28;20177;-79
2022/05/09 06:37:49;;;;;;;30.33;23.33;;;;;;;;;;4977976;28;20177;-80
2022/05/09 06:40:15;;;;;;;31.53;23.23;;;;;;;;;;4987382;28;20890;-79
2022/05/09 06:42:42;;;;;;;31.53;23.93;;;;;;;;;;4986779;28;20193;-79
2022/05/09 06:45:09;;;;;;;32.17;25.27;;;;;;;;;;4986654;28;20173;-79
2022/05/09 06:47:35;;;;;;;31.77;23.37;;;;;;;;;;4980201;28;20209;-79
2022/05/09 06:50:02;;;;;;;26.97;20.97;;;;;;;;;;4971179;28;20186;-78
2022/05/09 06:52:28;;;;;;;27.77;24.10;;;;;;;;;;4980155;28;20182;-79
2022/05/09 06:54:54;;;;;;;32.17;24.37;;;;;;;;;;4989317;28;20169;-78
2022/05/09 06:57:21;;;;;;;29.13;23.77;;;;;;;;;;4980257;28;20177;-78
2022/05/09 06:59:48;;;;;;;27.83;22.47;;;;;;;;;;4978775;28;21070;-79
2022/05/09 07:02:15;;;;;;;27.83;22.47;;;;;;;;;;4978492;28;20194;-75
2022/05/09 07:04:41;;;;;;;29.00;22.90;;;;;;;;;;4977372;28;20177;-76
2022/05/09 07:07:07;;;;;;;30.57;23.70;;;;;;;;;;4980881;28;20189;-76
2022/05/09 07:09:33;;;;;;;27.83;22.97;;;;;;;;;;4986038;28;20212;-77
2022/05/09 07:11:59;;;;;;;29.00;21.37;;;;;;;;;;4978695;28;20184;-78
2022/05/09 07:14:25;;;;;;;27.47;21.43;;;;;;;;;;4982505;28;20178;-77
2022/05/09 07:16:51;;;;;;;25.90;21.90;;;;;;;;;;4979003;28;20943;-77
2022/05/09 07:19:18;;;;;;;28.27;23.03;;;;;;;;;;4980407;28;20205;-78
2022/05/09 07:21:44;;;;;;;26.63;22.10;;;;;;;;;;4981060;28;20221;-77
2022/05/09 07:24:10;;;;;;;28.90;22.73;;;;;;;;;;4983695;28;20787;-78
2022/05/09 07:26:37;;;;;;;23.60;21.03;;;;;;;;;;4978891;28;20962;-78
2022/05/09 07:29:04;;;;;;;25.90;21.00;;;;;;;;;;4980592;28;20174;-77
2022/05/09 07:31:31;;;;;;;30.40;21.30;;;;;;;;;;4983760;28;20173;-77
2022/05/09 07:33:57;;;;;;;24.07;20.97;;;;;;;;;;4982928;28;20310;-77
2022/05/09 07:36:23;;;;;;;25.57;22.73;;;;;;;;;;4982767;28;20173;-77
2022/05/09 07:38:49;;;;;;;25.50;21.60;;;;;;;;;;4980789;28;20895;-77
2022/05/09 07:41:15;;;;;;;23.33;18.77;;;;;;;;;;4979336;28;20185;-77
2022/05/09 07:43:41;;;;;;;20.97;18.53;;;;;;;;;;4979231;28;20204;-77
2022/05/09 07:46:07;;;;;;;22.83;19.20;;;;;;;;;;4986738;28;20192;-79
2022/05/09 07:48:33;;;;;;;24.40;20.40;;;;;;;;;;4984961;28;20174;-77
2022/05/09 07:51:00;;;;;;;23.07;19.90;;;;;;;;;;4981527;28;20326;-77
2022/05/09 07:53:27;;;;;;;25.30;20.70;;;;;;;;;;4986279;28;20190;-77
2022/05/09 07:55:53;;;;;;;25.03;21.27;;;;;;;;;;4978815;28;20181;-77
2022/05/09 07:58:21;;;;;;;26.30;20.33;;;;;;;;;;4982690;28;20189;-77
2022/05/09 08:00:47;;;;;;;27.20;20.07;;;;;;;;;;4981964;28;20259;-78
2022/05/09 08:03:18;;;;;;;20.90;18.63;;;;;;;;;;4980021;28;20605;-78
2022/05/09 08:05:44;;;;;;;21.50;18.60;;;;;;;;;;4982862;28;21021;-78
2022/05/09 08:08:12;;;;;;;20.67;18.13;;;;;;;;;;4981067;28;20609;-77
2022/05/09 08:10:38;;;;;;;22.90;19.03;;;;;;;;;;4978695;28;20177;-78
2022/05/09 08:13:05;;;;;;;24.07;17.87;;;;;;;;;;4985698;28;21154;-77
2022/05/09 08:15:31;;;;;;;21.23;17.70;;;;;;;;;;4983885;28;20177;-78
2022/05/09 08:17:58;;;;;;;21.97;17.57;;;;;;;;;;4981476;28;20190;-77
2022/05/09 08:20:25;;;;;;;21.00;17.93;;;;;;;;;;4982558;28;20745;-77
2022/05/09 08:23:01;;;;;;;20.40;17.00;;;;;;;;;;4983825;28;20233;-77
2022/05/09 08:25:27;;;;;;;22.07;16.83;;;;;;;;;;4982842;28;20161;-78
2022/05/09 08:27:54;;;;;;;20.33;17.73;;;;;;;;;;4984197;28;20170;-77
2022/05/09 08:30:20;;;;;;;21.10;18.70;;;;;;;;;;4981664;28;20181;-77
2022/05/09 08:32:46;;;;;;;21.93;18.70;;;;;;;;;;4975106;28;20181;-77
2022/05/09 08:35:13;;;;;;;21.13;18.80;;;;;;;;;;4981362;28;20162;-77
2022/05/09 08:37:39;;;;;;;23.90;17.90;;;;;;;;;;4981993;28;20279;-77
2022/05/09 08:40:06;;;;;;;24.20;17.87;;;;;;;;;;4985105;28;20684;-77
2022/05/09 08:42:49;;;;;;;21.80;17.77;;;;;;;;;;4980452;28;20200;-79
2022/05/09 08:45:17;;;;;;;19.73;17.13;;;;;;;;;;4984963;28;20957;-78
2022/05/09 08:47:50;;;;;;;19.77;16.70;;;;;;;;;;4982565;28;20919;-78
2022/05/09 08:50:19;;;;;;;20.90;17.53;;;;;;;;;;4982588;28;20220;-78
2022/05/09 08:52:49;;;;;;;20.90;17.83;;;;;;;;;;4986480;28;20287;-79
2022/05/09 08:55:17;;;;;;;21.57;18.63;;;;;;;;;;4982140;28;20185;-78
2022/05/09 08:57:49;;;;;;;21.70;17.50;;;;;;;;;;4980908;28;20891;-78
2022/05/09 09:00:17;;;;;;;19.03;16.13;;;;;;;;;;4979101;28;20173;-78
2022/05/09 09:03:02;;;;;;;22.27;16.77;;;;;;;;;;4983317;28;20193;-78
2022/05/09 09:05:32;;;;;;;24.13;16.07;;;;;;;;;;4983303;28;20176;-78
2022/05/09 09:08:01;;;;;;;21.67;17.17;;;;;;;;;;4985681;28;20177;-78
2022/05/09 09:10:41;;;;;;;23.80;17.83;;;;;;;;;;4983133;28;20728;-78
2022/05/09 09:13:19;;;;;;;19.50;15.77;;;;;;;;;;4984918;28;20173;-78
2022/05/09 09:15:45;;;;;;;21.23;15.60;;;;;;;;;;4986182;28;20204;-78
2022/05/09 09:18:30;;;;;;;17.73;15.90;;;;;;;;;;4984381;28;20182;-78
2022/05/09 09:21:06;;;;;;;19.53;16.27;;;;;;;;;;4984425;28;21306;-78
2022/05/09 09:23:32;;;;;;;19.90;15.83;;;;;;;;;;4987025;28;20200;-78
2022/05/09 09:26:03;;;;;;;17.87;15.27;;;;;;;;;;4986344;28;20177;-79
2022/05/09 09:28:36;;;;;;;18.17;15.43;;;;;;;;;;4990618;28;20182;-79
2022/05/09 09:31:06;;;;;;;21.07;15.77;;;;;;;;;;4990913;28;20186;-79
2022/05/09 09:33:34;;;;;;;18.80;15.97;;;;;;;;;;4988524;28;20844;-79
2022/05/09 09:36:09;;;;;;;18.20;15.37;;;;;;;;;;4986254;28;20178;-78
2022/05/09 09:39:08;;;;;;;18.00;14.73;;;;;;;;;;4986785;28;20185;-79
2022/05/09 09:41:35;;;;;;;21.13;15.27;;;;;;;;;;4976397;28;20185;-78
2022/05/09 09:44:08;;;;;;;16.30;14.33;;;;;;;;;;4984882;28;20339;-78
2022/05/09 09:46:34;;;;;;;16.80;15.00;;;;;;;;;;4990178;28;20177;-79
2022/05/09 09:49:08;;;;;;;17.43;14.97;;;;;;;;;;4981529;28;20169;-79
2022/05/09 09:51:47;;;;;;;19.13;13.60;;;;;;;;;;4983318;28;20178;-79
2022/05/09 09:54:13;;;;;;;47.43;13.97;;;;;;;;;;4988786;28;20181;-79
2022/05/09 09:56:39;;;;;;;19.57;14.03;;;;;;;;;;4986368;28;20271;-79
2022/05/09 09:59:25;;;;;;;15.80;12.40;;;;;;;;;;4986122;28;20208;-79
2022/05/09 10:02:02;;;;;;;19.03;14.77;;;;;;;;;;4984906;28;20256;-78
2022/05/09 10:04:36;;;;;;;18.37;15.03;;;;;;;;;;4983530;28;20636;-78
2022/05/09 10:07:16;;;;;;;22.50;15.03;;;;;;;;;;4983038;28;20169;-78
2022/05/09 10:09:43;;;;;;;18.80;15.27;;;;;;;;;;4985671;28;20238;-78
2022/05/09 10:12:16;;;;;;;15.80;14.13;;;;;;;;;;4982456;28;20177;-79
2022/05/09 10:14:42;;;;;;;15.33;12.90;;;;;;;;;;4983648;28;20182;-79
2022/05/09 10:17:18;;;;;;;16.70;14.80;;;;;;;;;;4985004;28;20281;-79
2022/05/09 10:19:44;;;;;;;16.70;13.77;;;;;;;;;;4984022;28;21267;-79
2022/05/09 10:25:13;;;;;;;14.77;13.10;;;;;;;;;;4985034;28;20926;-78
2022/05/09 10:27:39;;;;;;;19.90;14.07;;;;;;;;;;4981520;28;20961;-78
2022/05/09 10:30:08;;;;;;;16.00;13.67;;;;;;;;;;4984541;28;20182;-78
2022/05/09 10:32:40;;;;;;;16.97;12.93;;;;;;;;;;4988116;28;20228;-78
2022/05/09 10:35:25;;;;;;;14.17;12.73;;;;;;;;;;4982207;28;20208;-78
2022/05/09 10:37:55;;;;;;;16.47;12.53;;;;;;;;;;4983747;28;20180;-78
2022/05/09 10:40:40;;;;;;;16.23;13.00;;;;;;;;;;4984774;28;20228;-78
2022/05/09 10:43:07;;;;;;;15.03;13.20;;;;;;;;;;4986793;28;20300;-78
2022/05/09 10:45:41;;;;;;;16.53;11.93;;;;;;;;;;4989373;28;20184;-78
2022/05/09 10:48:10;;;;;;;15.80;11.97;;;;;;;;;;4981851;28;20170;-79
2022/05/09 10:50:55;;;;;;;17.07;10.73;;;;;;;;;;4984969;28;20189;-80
2022/05/09 10:53:57;;;;;;;14.97;12.00;;;;;;;;;;4982210;28;20177;-79
2022/05/09 10:56:29;;;;;;;14.13;11.07;;;;;;;;;;4981427;28;20176;-79
2022/05/09 10:59:01;;;;;;;15.07;10.83;;;;;;;;;;4978311;28;21180;-79
2022/05/09 11:01:35;;;;;;;12.87;10.33;;;;;;;;;;4980849;28;20189;-80
2022/05/09 11:04:02;;;;;;;13.10;10.57;;;;;;;;;;4982957;28;20339;-80
2022/05/09 11:06:45;;;;;;;18.37;11.13;;;;;;;;;;4981785;28;20212;-79
2022/05/09 11:09:45;;;;;;;15.03;11.43;;;;;;;;;;4984866;28;20177;-79
2022/05/09 11:12:41;;;;;;;11.97;10.47;;;;;;;;;;4982826;28;20189;-79
2022/05/09 11:15:11;;;;;;;16.67;10.70;;;;;;;;;;4983773;28;20177;-80
2022/05/09 11:17:40;;;;;;;13.83;10.20;;;;;;;;;;4987892;28;21041;-80
2022/05/09 11:20:06;;;;;;;11.90;10.43;;;;;;;;;;4983337;28;20185;-79
2022/05/09 11:22:53;;;;;;;11.47;9.30;;;;;;;;;;4980977;28;20197;-80
2022/05/09 11:25:32;;;;;;;13.03;10.30;;;;;;;;;;4980999;28;20189;-80
2022/05/09 11:28:24;;;;;;;16.27;11.00;;;;;;;;;;4985530;28;20774;-80
2022/05/09 11:30:56;;;;;;;16.27;11.43;;;;;;;;;;4970329;28;20312;-80
2022/05/09 11:33:32;;;;;;;19.53;11.90;;;;;;;;;;4980434;28;20169;-80
2022/05/09 11:36:13;;;;;;;13.00;10.47;;;;;;;;;;4981385;28;20176;-80
2022/05/09 11:38:58;;;;;;;13.37;9.57;;;;;;;;;;4981166;28;20177;-81
2022/05/09 11:41:24;;;;;;;14.80;10.33;;;;;;;;;;4981358;28;20964;-80
2022/05/09 11:44:19;;;;;;;14.40;10.87;;;;;;;;;;4987797;28;20202;-80
2022/05/09 11:46:48;;;;;;;11.50;10.33;;;;;;;;;;4972605;28;20182;-80
2022/05/09 11:49:20;;;;;;;11.50;10.40;;;;;;;;;;4981967;28;20174;-80
2022/05/09 11:51:49;;;;;;;16.60;11.33;;;;;;;;;;4988912;28;20201;-80
2022/05/09 11:54:18;;;;;;;11.70;9.80;;;;;;;;;;4986294;28;20236;-80
2022/05/09 11:56:48;;;;;;;13.73;10.03;;;;;;;;;;4980053;28;20170;-80
2022/05/09 11:59:24;;;;;;;15.00;10.57;;;;;;;;;;4986355;28;20182;-80
2022/05/09 12:01:53;;;;;;;17.50;11.83;;;;;;;;;;4978517;28;20298;-80
2022/05/09 12:04:34;;;;;;;11.43;10.03;;;;;;;;;;4985293;28;20197;-80
2022/05/09 12:07:01;;;;;;;15.33;10.93;;;;;;;;;;4986992;28;20182;-80
2022/05/09 12:10:05;;;;;;;15.17;11.30;;;;;;;;;;4988192;28;20180;-80
2022/05/09 12:12:37;;;;;;;11.07;9.97;;;;;;;;;;4965774;28;20962;-80
2022/05/09 12:15:05;;;;;;;14.93;10.07;;;;;;;;;;4965306;28;21138;-80
2022/05/09 12:17:35;;;;;;;15.23;9.60;;;;;;;;;;4965969;28;21023;-80
2022/05/09 12:20:04;;;;;;;17.00;10.73;;;;;;;;;;4984868;28;20227;-80
2022/05/09 12:22:39;;;;;;;15.03;10.47;;;;;;;;;;4985062;28;20389;-80
2022/05/09 12:25:07;;;;;;;11.97;10.37;;;;;;;;;;4989537;28;20177;-80
2022/05/09 12:27:39;;;;;;;12.93;10.20;;;;;;;;;;4985529;28;20197;-80
2022/05/09 12:30:11;;;;;;;13.80;9.77;;;;;;;;;;4987851;28;20201;-80
2022/05/09 12:32:37;;;;;;;13.63;10.60;;;;;;;;;;4988573;28;20781;-80
2022/05/09 12:35:07;;;;;;;16.47;10.90;;;;;;;;;;4989594;28;20244;-80
2022/05/09 12:37:42;;;;;;;15.70;10.40;;;;;;;;;;4989294;28;20255;-80
2022/05/09 12:40:19;;;;;;;12.97;10.07;;;;;;;;;;4987141;28;20181;-80
2022/05/09 12:42:49;;;;;;;13.20;10.33;;;;;;;;;;4986200;28;20200;-81
2022/05/09 12:45:18;;;;;;;15.63;10.27;;;;;;;;;;4985409;28;20914;-80
2022/05/09 12:47:47;;;;;;;14.00;10.37;;;;;;;;;;4984143;28;20172;-80
2022/05/09 12:50:24;;;;;;;12.83;11.10;;;;;;;;;;4986137;28;21054;-80
2022/05/09 12:52:52;;;;;;;13.27;10.73;;;;;;;;;;4988318;28;20174;-80
2022/05/09 12:58:22;;;;;;;12.70;10.80;;;;;;;;;;4982491;28;20628;-80
2022/05/09 13:00:48;;;;;;;19.13;11.47;;;;;;;;;;4984340;28;20200;-80
2022/05/09 13:03:15;;;;;;;11.87;9.57;;;;;;;;;;4984114;28;20229;-80
2022/05/09 13:05:43;;;;;;;13.93;10.17;;;;;;;;;;4990330;28;20855;-80
2022/05/09 13:08:10;;;;;;;12.43;9.17;;;;;;;;;;4986161;28;20340;-80
2022/05/09 13:10:48;;;;;;;15.23;10.03;;;;;;;;;;4983664;28;20387;-80
2022/05/09 13:13:22;;;;;;;12.57;8.80;;;;;;;;;;4982322;28;20182;-80
2022/05/09 13:15:48;;;;;;;12.27;8.67;;;;;;;;;;4984039;28;20181;-80
2022/05/09 13:18:22;;;;;;;12.33;10.20;;;;;;;;;;4985321;28;20193;-80
2022/05/09 13:20:50;;;;;;;12.83;10.33;;;;;;;;;;4989965;28;20509;-80
2022/05/09 13:23:16;;;;;;;17.13;10.33;;;;;;;;;;4985831;28;21156;-80
2022/05/09 13:25:49;;;;;;;16.27;9.67;;;;;;;;;;4986073;28;20170;-80
2022/05/09 13:28:17;;;;;;;12.07;8.23;;;;;;;;;;4983964;28;20177;-81
2022/05/09 13:30:54;;;;;;;11.80;7.90;;;;;;;;;;4985001;28;20172;-80
2022/05/09 13:33:24;;;;;;;13.67;7.80;;;;;;;;;;4983442;28;20243;-80
2022/05/09 13:35:54;;;;;;;9.83;7.70;;;;;;;;;;4985136;28;21063;-80
2022/05/09 13:38:26;;;;;;;11.13;7.77;;;;;;;;;;4982969;28;20166;-80
2022/05/09 13:41:00;;;;;;;11.87;8.50;;;;;;;;;;4985713;28;20178;-80
2022/05/09 13:43:27;;;;;;;12.93;8.87;;;;;;;;;;4986380;28;20197;-81
2022/05/09 13:46:00;;;;;;;11.43;9.30;;;;;;;;;;4983011;28;20170;-80
2022/05/09 13:48:27;;;;;;;11.43;8.43;;;;;;;;;;4985453;28;20178;-80
2022/05/09 13:50:53;;;;;;;14.90;8.83;;;;;;;;;;4978216;28;20964;-80
2022/05/09 13:53:37;;;;;;;11.67;8.30;;;;;;;;;;4982773;28;20213;-80
2022/05/09 13:56:07;;;;;;;10.93;8.47;;;;;;;;;;4987147;28;20173;-80
2022/05/09 13:58:34;;;;;;;10.17;8.33;;;;;;;;;;4982444;28;20185;-81
2022/05/09 14:01:01;;;;;;;11.10;8.00;;;;;;;;;;4982221;28;20177;-81
2022/05/09 14:03:29;;;;;;;11.67;7.50;;;;;;;;;;4988701;28;20198;-80
2022/05/09 14:05:57;;;;;;;11.90;7.20;;;;;;;;;;4982461;28;20171;-81
2022/05/09 14:08:24;;;;;;;12.07;7.50;;;;;;;;;;4987384;28;20170;-80
2022/05/09 14:11:00;;;;;;;11.97;7.63;;;;;;;;;;4984477;28;20166;-81
2022/05/09 14:13:35;;;;;;;11.13;6.90;;;;;;;;;;4983088;28;21043;-81
2022/05/09 14:16:08;;;;;;;11.50;7.53;;;;;;;;;;4984333;28;20178;-81
2022/05/09 14:18:36;;;;;;;14.10;7.77;;;;;;;;;;4983114;28;20204;-81
2022/05/09 14:21:06;;;;;;;13.90;7.40;;;;;;;;;;4984057;28;21068;-81
2022/05/09 14:23:32;;;;;;;11.23;7.90;;;;;;;;;;4981020;28;20201;-81
2022/05/09 14:31:45;;;;;;;10.93;7.53;;;;;;;;;;4982385;28;20240;-79
2022/05/09 14:34:32;;;;;;;10.93;6.87;;;;;;;;;;4983951;28;20177;-79
2022/05/09 14:37:08;;;;;;;9.57;7.63;;;;;;;;;;4978835;28;20263;-79
2022/05/09 14:39:39;;;;;;;12.20;7.07;;;;;;;;;;4979556;28;20177;-80
2022/05/09 14:42:10;;;;;;;14.10;7.73;;;;;;;;;;4984042;28;20178;-80
2022/05/09 14:44:36;;;;;;;10.23;6.73;;;;;;;;;;4989327;28;20173;-79
2022/05/09 14:47:05;;;;;;;11.27;7.13;;;;;;;;;;4982131;28;20185;-79
2022/05/09 14:49:33;;;;;;;16.07;6.87;;;;;;;;;;4984200;28;20173;-79